Time;durP1;ratioP1;P1;durP2;ratioP2;P2;SDS_P1;SDS_P2;PMS_P1;PMS_P2;Temp;Humidity;BMP_temperature;BMP_pressure;BME280_temperature;BME280_humidity;BME280_pressure;Samples;Min_cycle;Max_cycle;Signal;HPM_P1;HPM_P2
2022/07/23 00:00:58;;;;;;;6.50;4.12;;;;;;;;;;4366563;32;20085;-65
2022/07/23 00:03:25;;;;;;;5.20;4.00;;;;;;;;;;4366729;32;20077;-66
2022/07/23 00:05:52;;;;;;;5.18;4.00;;;;;;;;;;4366898;32;20500;-65
2022/07/23 00:08:19;;;;;;;6.40;4.43;;;;;;;;;;4366697;32;20080;-65
2022/07/23 00:10:46;;;;;;;4.85;3.90;;;;;;;;;;4379125;32;20074;-63
2022/07/23 00:13:13;;;;;;;6.20;4.28;;;;;;;;;;4366910;32;20089;-64
2022/07/23 00:15:39;;;;;;;4.22;3.55;;;;;;;;;;4379366;32;20097;-65
2022/07/23 00:18:06;;;;;;;4.75;3.70;;;;;;;;;;4391787;32;20083;-64
2022/07/23 00:20:33;;;;;;;5.35;3.65;;;;;;;;;;4391672;32;20082;-64
2022/07/23 00:23:00;;;;;;;4.30;3.60;;;;;;;;;;4379696;32;20070;-64
2022/07/23 00:25:27;;;;;;;5.78;3.90;;;;;;;;;;4391958;32;20152;-64
2022/07/23 00:27:54;;;;;;;4.57;3.53;;;;;;;;;;4379149;32;20193;-64
2022/07/23 00:30:21;;;;;;;4.78;3.33;;;;;;;;;;4366657;32;20085;-65
2022/07/23 00:32:53;;;;;;;3.80;3.08;;;;;;;;;;4378363;32;20220;-65
2022/07/23 00:35:22;;;;;;;4.32;3.30;;;;;;;;;;4391548;32;20108;-65
2022/07/23 00:37:48;;;;;;;3.97;3.30;;;;;;;;;;4379161;32;20537;-64
2022/07/23 00:40:15;;;;;;;4.35;3.50;;;;;;;;;;4378793;32;20149;-64
2022/07/23 00:42:45;;;;;;;4.87;3.35;;;;;;;;;;4366500;32;20066;-65
2022/07/23 00:45:12;;;;;;;3.95;3.58;;;;;;;;;;4392847;32;20058;-65
2022/07/23 00:47:39;;;;;;;4.53;3.60;;;;;;;;;;4379009;32;20085;-65
2022/07/23 00:50:08;;;;;;;4.45;3.30;;;;;;;;;;4378851;32;20073;-64
2022/07/23 00:52:36;;;;;;;5.40;3.53;;;;;;;;;;4366267;32;20146;-65
2022/07/23 00:55:06;;;;;;;5.85;3.60;;;;;;;;;;4391280;32;20527;-64
2022/07/23 00:57:33;;;;;;;5.20;3.17;;;;;;;;;;4378846;32;20151;-66
2022/07/23 01:00:00;;;;;;;3.67;3.22;;;;;;;;;;4378646;32;20082;-65
2022/07/23 01:02:28;;;;;;;3.97;3.22;;;;;;;;;;4366392;32;20086;-64
2022/07/23 01:04:54;;;;;;;4.30;3.28;;;;;;;;;;4378956;32;20149;-65
2022/07/23 01:07:22;;;;;;;4.00;3.40;;;;;;;;;;4366283;32;20155;-64
2022/07/23 01:09:50;;;;;;;6.32;3.42;;;;;;;;;;4391172;32;20097;-65
2022/07/23 01:12:16;;;;;;;4.18;3.50;;;;;;;;;;4377388;32;20171;-64
2022/07/23 01:14:43;;;;;;;3.75;3.30;;;;;;;;;;4390611;32;20441;-64
2022/07/23 01:17:10;;;;;;;4.90;3.45;;;;;;;;;;4378548;32;20073;-65
2022/07/23 01:19:37;;;;;;;3.67;3.20;;;;;;;;;;4392244;32;20095;-64
2022/07/23 01:22:05;;;;;;;4.47;3.40;;;;;;;;;;4378540;32;20174;-63
2022/07/23 01:24:32;;;;;;;3.80;3.40;;;;;;;;;;4390900;32;20085;-64
2022/07/23 01:26:58;;;;;;;3.40;3.00;;;;;;;;;;4390767;32;20069;-64
2022/07/23 01:29:25;;;;;;;4.28;3.25;;;;;;;;;;4391389;32;20081;-65
2022/07/23 01:31:52;;;;;;;4.07;3.40;;;;;;;;;;4378196;32;20162;-64
2022/07/23 01:34:19;;;;;;;3.67;3.25;;;;;;;;;;4378231;32;20089;-64
2022/07/23 01:36:46;;;;;;;3.90;3.10;;;;;;;;;;4365281;32;20516;-64
2022/07/23 01:39:13;;;;;;;3.90;3.22;;;;;;;;;;4378148;32;20078;-64
2022/07/23 01:41:40;;;;;;;4.85;3.17;;;;;;;;;;4378199;32;20097;-64
2022/07/23 01:44:07;;;;;;;3.35;3.00;;;;;;;;;;4390406;32;20460;-65
2022/07/23 01:46:35;;;;;;;5.05;3.15;;;;;;;;;;4365295;32;20520;-64
2022/07/23 01:49:02;;;;;;;3.83;3.03;;;;;;;;;;4390873;32;20169;-64
2022/07/23 01:51:28;;;;;;;3.45;3.12;;;;;;;;;;4378006;32;20077;-64
2022/07/23 01:53:55;;;;;;;3.67;3.37;;;;;;;;;;4390259;32;20588;-64
2022/07/23 01:56:22;;;;;;;4.60;3.40;;;;;;;;;;4377973;32;20077;-64
2022/07/23 01:58:49;;;;;;;4.37;3.92;;;;;;;;;;4377897;32;20061;-64
2022/07/23 02:01:16;;;;;;;4.70;3.60;;;;;;;;;;4390815;32;20153;-65
2022/07/23 02:03:43;;;;;;;4.20;3.80;;;;;;;;;;4378097;32;20059;-63
2022/07/23 02:06:09;;;;;;;4.00;3.60;;;;;;;;;;4390418;32;20092;-63
2022/07/23 02:08:36;;;;;;;4.93;3.35;;;;;;;;;;4377994;32;20193;-64
2022/07/23 02:11:03;;;;;;;5.43;3.70;;;;;;;;;;4390441;32;20153;-64
2022/07/23 02:13:30;;;;;;;6.03;3.40;;;;;;;;;;4377308;32;20159;-64
2022/07/23 02:15:57;;;;;;;4.10;3.58;;;;;;;;;;4390021;32;20236;-65
2022/07/23 02:18:23;;;;;;;3.90;3.33;;;;;;;;;;4390794;32;20073;-64
2022/07/23 02:20:50;;;;;;;5.40;3.20;;;;;;;;;;4377608;32;20546;-67
2022/07/23 02:23:17;;;;;;;3.58;3.03;;;;;;;;;;4364974;32;20081;-64
2022/07/23 02:25:44;;;;;;;4.18;3.25;;;;;;;;;;4377364;32;20070;-65
2022/07/23 02:28:11;;;;;;;5.95;3.50;;;;;;;;;;4389820;32;20135;-65
2022/07/23 02:30:39;;;;;;;5.82;3.70;;;;;;;;;;4377409;32;20082;-63
2022/07/23 02:33:05;;;;;;;5.82;3.85;;;;;;;;;;4389764;32;20082;-64
2022/07/23 02:35:32;;;;;;;4.95;3.90;;;;;;;;;;4391008;32;20089;-65
2022/07/23 02:37:59;;;;;;;4.90;4.00;;;;;;;;;;4364890;32;20101;-63
2022/07/23 02:40:25;;;;;;;5.85;3.67;;;;;;;;;;4389854;32;20145;-64
2022/07/23 02:42:52;;;;;;;4.12;3.72;;;;;;;;;;4391410;32;20085;-65
2022/07/23 02:45:19;;;;;;;4.35;3.70;;;;;;;;;;4377244;32;20081;-64
2022/07/23 02:47:46;;;;;;;4.22;3.50;;;;;;;;;;4390162;32;20488;-65
2022/07/23 02:50:13;;;;;;;5.05;3.35;;;;;;;;;;4377310;32;20239;-65
2022/07/23 02:52:39;;;;;;;4.50;3.30;;;;;;;;;;4365406;32;20088;-69
2022/07/23 02:55:07;;;;;;;4.60;3.50;;;;;;;;;;4391173;32;20160;-64
2022/07/23 02:57:34;;;;;;;3.62;3.30;;;;;;;;;;4377184;32;20103;-65
2022/07/23 03:00:01;;;;;;;8.73;4.18;;;;;;;;;;4377346;32;20078;-64
2022/07/23 03:02:27;;;;;;;4.93;4.00;;;;;;;;;;4377286;32;20078;-66
2022/07/23 03:04:54;;;;;;;4.65;3.92;;;;;;;;;;4391065;32;20161;-64
2022/07/23 03:07:21;;;;;;;5.05;3.87;;;;;;;;;;4364794;32;20080;-65
2022/07/23 03:09:48;;;;;;;4.25;3.72;;;;;;;;;;4377660;32;20077;-65
2022/07/23 03:12:15;;;;;;;5.22;4.18;;;;;;;;;;4365412;32;20086;-65
2022/07/23 03:14:42;;;;;;;4.85;4.07;;;;;;;;;;4378885;32;20088;-64
2022/07/23 03:17:10;;;;;;;5.25;3.67;;;;;;;;;;4390958;32;20082;-64
2022/07/23 03:19:38;;;;;;;5.45;3.80;;;;;;;;;;4378993;32;20078;-64
2022/07/23 03:22:08;;;;;;;4.62;3.90;;;;;;;;;;4366193;32;20151;-64
2022/07/23 03:24:53;;;;;;;4.72;3.83;;;;;;;;;;4378293;32;20112;-64
2022/07/23 03:27:21;;;;;;;6.28;4.20;;;;;;;;;;4391048;32;20444;-64
2022/07/23 03:29:48;;;;;;;5.72;3.75;;;;;;;;;;4389731;32;20158;-65
2022/07/23 03:32:15;;;;;;;6.55;5.10;;;;;;;;;;4389784;32;20178;-65
2022/07/23 03:34:42;;;;;;;7.68;5.80;;;;;;;;;;4365915;32;20162;-64
2022/07/23 03:37:09;;;;;;;8.00;5.35;;;;;;;;;;4392162;32;20167;-65
2022/07/23 03:39:35;;;;;;;8.63;5.35;;;;;;;;;;4379976;32;20149;-64
2022/07/23 03:42:02;;;;;;;9.20;6.03;;;;;;;;;;4392658;32;20142;-65
2022/07/23 03:44:29;;;;;;;11.20;5.72;;;;;;;;;;4367276;32;20093;-64
2022/07/23 03:46:56;;;;;;;14.32;7.07;;;;;;;;;;4367266;32;20503;-65
2022/07/23 03:49:24;;;;;;;12.23;7.32;;;;;;;;;;4392464;32;20077;-64
2022/07/23 03:51:50;;;;;;;13.77;7.47;;;;;;;;;;4393705;32;20093;-65
2022/07/23 03:54:17;;;;;;;13.13;7.15;;;;;;;;;;4392229;32;20520;-65
2022/07/23 03:56:44;;;;;;;11.30;6.00;;;;;;;;;;4379682;32;20085;-64
2022/07/23 03:59:11;;;;;;;13.62;7.22;;;;;;;;;;4379704;32;20058;-65
2022/07/23 04:01:38;;;;;;;13.50;6.53;;;;;;;;;;4379698;32;20070;-64
2022/07/23 04:04:05;;;;;;;9.27;6.05;;;;;;;;;;4392430;32;20085;-65
2022/07/23 04:06:32;;;;;;;11.73;6.28;;;;;;;;;;4367061;32;20086;-64
2022/07/23 04:08:59;;;;;;;10.80;5.50;;;;;;;;;;4379468;32;20162;-64
2022/07/23 04:11:26;;;;;;;10.48;5.32;;;;;;;;;;4391747;32;20066;-65
2022/07/23 04:13:53;;;;;;;9.60;5.70;;;;;;;;;;4392085;32;20086;-64
2022/07/23 04:16:20;;;;;;;6.10;4.65;;;;;;;;;;4366810;32;20085;-65
2022/07/23 04:18:47;;;;;;;7.07;4.72;;;;;;;;;;4366755;32;20581;-64
2022/07/23 04:21:14;;;;;;;6.62;4.53;;;;;;;;;;4379560;32;20531;-64
2022/07/23 04:23:41;;;;;;;6.75;3.92;;;;;;;;;;4379554;32;20072;-64
2022/07/23 04:26:07;;;;;;;7.90;4.90;;;;;;;;;;4379129;32;20124;-65
2022/07/23 04:28:34;;;;;;;8.00;4.87;;;;;;;;;;4391859;32;20066;-64
2022/07/23 04:31:01;;;;;;;4.70;4.12;;;;;;;;;;4366484;32;20516;-65
2022/07/23 04:33:28;;;;;;;6.40;4.07;;;;;;;;;;4391567;32;20142;-65
2022/07/23 04:35:55;;;;;;;7.57;3.95;;;;;;;;;;4366611;32;20182;-64
2022/07/23 04:38:22;;;;;;;6.05;3.87;;;;;;;;;;4391339;32;20077;-64
2022/07/23 04:40:48;;;;;;;6.22;4.05;;;;;;;;;;4393664;32;20136;-65
2022/07/23 04:43:15;;;;;;;6.35;4.47;;;;;;;;;;4379219;32;20492;-65
2022/07/23 04:45:42;;;;;;;8.43;3.75;;;;;;;;;;4366605;32;20100;-65
2022/07/23 04:48:09;;;;;;;6.57;3.80;;;;;;;;;;4391220;32;20082;-64
2022/07/23 04:50:36;;;;;;;4.57;3.80;;;;;;;;;;4366071;32;20159;-65
2022/07/23 04:53:03;;;;;;;4.47;3.90;;;;;;;;;;4378960;32;20162;-65
2022/07/23 04:55:30;;;;;;;5.62;3.80;;;;;;;;;;4366511;32;20081;-65
2022/07/23 04:57:57;;;;;;;4.85;3.40;;;;;;;;;;4378563;32;20515;-65
2022/07/23 05:00:24;;;;;;;6.00;4.20;;;;;;;;;;4378573;32;20094;-65
2022/07/23 05:02:51;;;;;;;5.05;4.28;;;;;;;;;;4392501;32;20101;-65
2022/07/23 05:05:18;;;;;;;7.37;4.22;;;;;;;;;;4378522;32;20153;-65
2022/07/23 05:07:45;;;;;;;5.25;3.97;;;;;;;;;;4378246;32;20159;-64
2022/07/23 05:10:11;;;;;;;8.45;4.47;;;;;;;;;;4378117;32;20587;-65
2022/07/23 05:12:38;;;;;;;8.90;4.87;;;;;;;;;;4378547;32;20097;-65
2022/07/23 05:15:06;;;;;;;5.20;3.97;;;;;;;;;;4378447;32;20078;-65
2022/07/23 05:17:32;;;;;;;5.60;4.22;;;;;;;;;;4390764;32;20078;-65
2022/07/23 05:19:59;;;;;;;8.90;4.20;;;;;;;;;;4378334;32;20080;-63
2022/07/23 05:22:26;;;;;;;4.95;4.20;;;;;;;;;;4391512;32;20096;-64
2022/07/23 05:24:52;;;;;;;6.47;4.30;;;;;;;;;;4378511;32;20515;-63
2022/07/23 05:27:19;;;;;;;4.95;3.85;;;;;;;;;;4378123;32;20081;-64
2022/07/23 05:29:46;;;;;;;7.15;3.90;;;;;;;;;;4365808;32;20062;-64
2022/07/23 05:32:13;;;;;;;5.68;3.67;;;;;;;;;;4377994;32;20097;-63
2022/07/23 05:34:40;;;;;;;4.72;4.20;;;;;;;;;;4390505;32;20176;-63
2022/07/23 05:37:07;;;;;;;8.20;4.10;;;;;;;;;;4392051;32;20074;-64
2022/07/23 05:39:34;;;;;;;5.60;3.83;;;;;;;;;;4378127;32;20085;-64
2022/07/23 05:42:01;;;;;;;4.60;3.78;;;;;;;;;;4378208;32;20169;-63
2022/07/23 05:44:28;;;;;;;4.45;3.20;;;;;;;;;;4390403;32;20066;-64
2022/07/23 05:46:55;;;;;;;7.30;3.83;;;;;;;;;;4377943;32;20441;-65
2022/07/23 05:49:22;;;;;;;5.57;3.90;;;;;;;;;;4365384;32;20082;-64
2022/07/23 05:51:49;;;;;;;4.30;3.90;;;;;;;;;;4390487;32;20086;-64
2022/07/23 05:54:16;;;;;;;5.10;4.30;;;;;;;;;;4378164;32;20097;-65
2022/07/23 05:56:42;;;;;;;4.53;3.60;;;;;;;;;;4391683;32;20537;-65
2022/07/23 05:59:09;;;;;;;5.60;4.45;;;;;;;;;;4390117;32;20531;-64
2022/07/23 06:01:36;;;;;;;3.72;3.35;;;;;;;;;;4391706;32;20085;-63
2022/07/23 06:04:03;;;;;;;4.60;3.55;;;;;;;;;;4378232;32;20109;-64
2022/07/23 06:06:30;;;;;;;5.57;4.10;;;;;;;;;;4377991;32;20090;-63
2022/07/23 06:08:56;;;;;;;4.53;3.30;;;;;;;;;;4378079;32;20142;-64
2022/07/23 06:11:23;;;;;;;6.30;4.35;;;;;;;;;;4364909;32;20081;-64
2022/07/23 06:13:50;;;;;;;5.57;4.18;;;;;;;;;;4390046;32;20081;-64
2022/07/23 06:16:17;;;;;;;5.18;4.03;;;;;;;;;;4391432;32;20090;-64
2022/07/23 06:18:44;;;;;;;7.07;3.35;;;;;;;;;;4390379;32;20194;-63
2022/07/23 06:21:10;;;;;;;4.15;3.30;;;;;;;;;;4391732;32;20146;-63
2022/07/23 06:23:37;;;;;;;5.00;3.15;;;;;;;;;;4391310;32;20093;-63
2022/07/23 06:26:04;;;;;;;5.18;3.45;;;;;;;;;;4389825;32;20530;-63
2022/07/23 06:28:30;;;;;;;4.93;3.30;;;;;;;;;;4378005;32;20574;-63
2022/07/23 06:30:57;;;;;;;7.25;3.85;;;;;;;;;;4391464;32;20077;-64
2022/07/23 06:33:24;;;;;;;5.75;3.62;;;;;;;;;;4389623;32;20517;-64
2022/07/23 06:35:50;;;;;;;4.47;4.00;;;;;;;;;;4392046;32;20077;-63
2022/07/23 06:38:17;;;;;;;4.45;3.90;;;;;;;;;;4391504;32;20089;-64
2022/07/23 06:40:44;;;;;;;5.78;4.10;;;;;;;;;;4390109;32;20459;-64
2022/07/23 06:43:11;;;;;;;3.78;3.33;;;;;;;;;;4391216;32;20086;-64
2022/07/23 06:45:38;;;;;;;5.47;3.15;;;;;;;;;;4377492;32;20157;-64
2022/07/23 06:48:05;;;;;;;8.23;3.78;;;;;;;;;;4378195;32;20504;-64
2022/07/23 06:50:32;;;;;;;4.93;3.53;;;;;;;;;;4389691;32;20150;-65
2022/07/23 06:52:59;;;;;;;3.55;3.22;;;;;;;;;;4389696;32;20180;-64
2022/07/23 06:55:25;;;;;;;3.85;3.42;;;;;;;;;;4389724;32;20097;-64
2022/07/23 06:57:52;;;;;;;4.00;3.60;;;;;;;;;;4365577;32;20078;-64
2022/07/23 07:00:19;;;;;;;3.80;3.50;;;;;;;;;;4389832;32;20093;-64
2022/07/23 07:02:46;;;;;;;5.68;4.00;;;;;;;;;;4377346;32;20504;-65
2022/07/23 07:05:12;;;;;;;4.82;3.90;;;;;;;;;;4389780;32;20090;-64
2022/07/23 07:07:39;;;;;;;7.28;4.10;;;;;;;;;;4390122;32;20109;-64
2022/07/23 07:10:06;;;;;;;3.95;3.55;;;;;;;;;;4378222;32;20084;-64
2022/07/23 07:12:33;;;;;;;4.03;3.12;;;;;;;;;;4393795;32;20089;-65
2022/07/23 07:15:00;;;;;;;5.07;3.37;;;;;;;;;;4392195;32;20160;-63
2022/07/23 07:17:26;;;;;;;4.78;3.25;;;;;;;;;;4392507;32;20607;-64
2022/07/23 07:19:53;;;;;;;5.35;3.75;;;;;;;;;;4379675;32;20077;-63
2022/07/23 07:22:20;;;;;;;5.00;3.45;;;;;;;;;;4394061;32;20160;-64
2022/07/23 07:24:46;;;;;;;5.25;3.20;;;;;;;;;;4392754;32;20074;-65
2022/07/23 07:27:13;;;;;;;3.55;2.75;;;;;;;;;;4393754;32;20157;-64
2022/07/23 07:29:40;;;;;;;4.45;3.08;;;;;;;;;;4392498;32;20165;-63
2022/07/23 07:32:06;;;;;;;4.30;3.60;;;;;;;;;;4379739;32;20150;-63
2022/07/23 07:34:33;;;;;;;5.78;2.90;;;;;;;;;;4380280;32;20086;-63
2022/07/23 07:37:00;;;;;;;3.30;2.78;;;;;;;;;;4379777;32;20155;-63
2022/07/23 07:39:27;;;;;;;3.67;2.72;;;;;;;;;;4392616;32;20618;-63
2022/07/23 07:41:53;;;;;;;3.17;2.42;;;;;;;;;;4391947;32;20157;-63
2022/07/23 07:44:20;;;;;;;3.10;2.80;;;;;;;;;;4392770;32;20073;-63
2022/07/23 07:46:47;;;;;;;7.72;3.80;;;;;;;;;;4392344;32;20166;-65
2022/07/23 07:49:14;;;;;;;4.78;3.08;;;;;;;;;;4379762;32;20100;-64
2022/07/23 07:51:40;;;;;;;5.80;3.03;;;;;;;;;;4392223;32;20169;-64
2022/07/23 07:54:07;;;;;;;7.35;3.53;;;;;;;;;;4392394;32;20079;-65
2022/07/23 07:56:34;;;;;;;4.60;3.28;;;;;;;;;;4379196;32;20518;-63
2022/07/23 07:59:01;;;;;;;3.10;2.80;;;;;;;;;;4380132;32;20084;-65
2022/07/23 08:01:28;;;;;;;3.58;3.00;;;;;;;;;;4367162;32;20082;-64
2022/07/23 08:03:54;;;;;;;4.85;2.92;;;;;;;;;;4379129;32;20075;-64
2022/07/23 08:06:21;;;;;;;3.33;3.03;;;;;;;;;;4393452;32;20512;-64
2022/07/23 08:08:48;;;;;;;4.72;2.87;;;;;;;;;;4393439;32;20093;-63
2022/07/23 08:11:15;;;;;;;3.75;2.58;;;;;;;;;;4392797;32;20090;-65
2022/07/23 08:13:44;;;;;;;3.30;3.00;;;;;;;;;;4393268;32;20123;-64
2022/07/23 08:16:11;;;;;;;5.70;3.17;;;;;;;;;;4379746;32;20088;-64
2022/07/23 08:18:38;;;;;;;5.95;3.20;;;;;;;;;;4391663;32;20097;-64
2022/07/23 08:21:05;;;;;;;2.95;2.70;;;;;;;;;;4392932;32;20149;-64
2022/07/23 08:23:32;;;;;;;4.40;2.65;;;;;;;;;;4392269;32;20081;-65
2022/07/23 08:25:59;;;;;;;3.42;2.87;;;;;;;;;;4379548;32;20089;-64
2022/07/23 08:28:26;;;;;;;4.55;3.22;;;;;;;;;;4366534;32;20100;-64
2022/07/23 08:30:53;;;;;;;4.12;3.08;;;;;;;;;;4366382;32;20520;-64
2022/07/23 08:33:20;;;;;;;3.97;3.12;;;;;;;;;;4391665;32;20239;-62
2022/07/23 08:35:49;;;;;;;3.20;2.83;;;;;;;;;;4379246;32;20082;-64
2022/07/23 08:38:18;;;;;;;3.75;2.50;;;;;;;;;;4391742;32;20073;-64
2022/07/23 08:40:50;;;;;;;3.62;2.47;;;;;;;;;;4378898;32;20231;-64
2022/07/23 08:43:19;;;;;;;1.25;1.02;;;;;;;;;;4366742;32;20512;-64
2022/07/23 08:45:48;;;;;;;3.90;2.42;;;;;;;;;;4379554;32;20152;-65
2022/07/23 08:48:23;;;;;;;5.93;3.10;;;;;;;;;;4366245;32;20081;-64
2022/07/23 08:50:52;;;;;;;6.43;3.03;;;;;;;;;;4391406;32;20153;-63
2022/07/23 08:53:19;;;;;;;3.40;2.58;;;;;;;;;;4378475;32;20081;-63
2022/07/23 08:55:51;;;;;;;11.38;3.65;;;;;;;;;;4366172;32;20085;-64
2022/07/23 08:58:18;;;;;;;4.70;3.10;;;;;;;;;;4378812;32;20174;-64
2022/07/23 09:00:45;;;;;;;7.00;3.42;;;;;;;;;;4391382;32;20070;-64
2022/07/23 09:03:23;;;;;;;4.87;3.58;;;;;;;;;;4378950;32;20085;-65
2022/07/23 09:05:51;;;;;;;8.00;3.70;;;;;;;;;;4378581;32;20155;-64
2022/07/23 09:08:22;;;;;;;6.05;3.28;;;;;;;;;;4379325;32;20161;-63
2022/07/23 09:10:58;;;;;;;8.88;2.90;;;;;;;;;;4392037;32;20095;-64
2022/07/23 09:13:33;;;;;;;3.72;2.72;;;;;;;;;;4378583;32;20081;-65
2022/07/23 09:19:06;;;;;;;6.53;3.42;;;;;;;;;;4392362;32;20076;-64
2022/07/23 09:21:34;;;;;;;6.18;3.53;;;;;;;;;;4378766;32;20448;-65
2022/07/23 09:24:03;;;;;;;4.85;2.50;;;;;;;;;;4390579;32;20103;-64
2022/07/23 09:26:58;;;;;;;3.60;2.80;;;;;;;;;;4390832;32;20074;-64
2022/07/23 09:29:25;;;;;;;5.22;2.80;;;;;;;;;;4387990;32;20176;-62
2022/07/23 09:32:07;;;;;;;3.97;2.67;;;;;;;;;;4377750;32;20162;-64
2022/07/23 09:34:39;;;;;;;3.17;2.50;;;;;;;;;;4377741;32;20161;-63
2022/07/23 09:37:10;;;;;;;4.57;2.45;;;;;;;;;;4366124;32;20069;-63
2022/07/23 09:39:37;;;;;;;4.00;3.00;;;;;;;;;;4390586;32;20480;-64
2022/07/23 09:42:21;;;;;;;4.28;2.78;;;;;;;;;;4365861;32;20081;-64
2022/07/23 09:44:53;;;;;;;6.00;2.97;;;;;;;;;;4365857;32;20088;-64
2022/07/23 09:47:21;;;;;;;5.40;3.05;;;;;;;;;;4390365;32;20157;-63
2022/07/23 09:50:08;;;;;;;4.90;2.87;;;;;;;;;;4390647;32;20089;-64
2022/07/23 09:52:53;;;;;;;4.78;2.85;;;;;;;;;;4390356;32;20088;-64
2022/07/23 09:55:21;;;;;;;2.92;2.55;;;;;;;;;;4377537;32;20142;-62
2022/07/23 09:57:56;;;;;;;4.22;3.00;;;;;;;;;;4365103;32;20080;-62
2022/07/23 10:00:23;;;;;;;4.22;3.22;;;;;;;;;;4377922;32;20144;-64
2022/07/23 10:02:50;;;;;;;5.00;3.10;;;;;;;;;;4390444;32;20156;-63
2022/07/23 10:05:17;;;;;;;4.05;2.78;;;;;;;;;;4391650;32;20519;-65
2022/07/23 10:07:45;;;;;;;3.53;2.72;;;;;;;;;;4377678;32;20146;-64
2022/07/23 10:10:12;;;;;;;3.83;2.72;;;;;;;;;;4390188;32;20089;-63
2022/07/23 10:12:57;;;;;;;3.03;2.70;;;;;;;;;;4377551;32;20081;-64
2022/07/23 10:15:25;;;;;;;4.20;2.95;;;;;;;;;;4367357;32;20166;-64
2022/07/23 10:17:52;;;;;;;5.32;2.90;;;;;;;;;;4377675;32;20074;-65
2022/07/23 10:20:19;;;;;;;4.50;2.92;;;;;;;;;;4390232;32;20519;-64
2022/07/23 10:22:57;;;;;;;4.35;3.40;;;;;;;;;;4390087;32;20080;-64
2022/07/23 10:25:32;;;;;;;4.40;3.05;;;;;;;;;;4389821;32;20083;-64
2022/07/23 10:28:16;;;;;;;4.78;2.47;;;;;;;;;;4389985;32;20184;-64
2022/07/23 10:31:27;;;;;;;3.45;2.62;;;;;;;;;;4390103;32;20076;-65
2022/07/23 10:34:15;;;;;;;3.80;2.62;;;;;;;;;;4331335;33;20089;-64
2022/07/23 10:37:03;;;;;;;4.95;3.37;;;;;;;;;;4389845;32;20089;-64
2022/07/23 10:39:34;;;;;;;4.62;2.78;;;;;;;;;;4391509;32;20077;-62
2022/07/23 10:42:13;;;;;;;4.43;3.12;;;;;;;;;;4377239;32;20092;-63
2022/07/23 10:44:44;;;;;;;4.18;3.62;;;;;;;;;;4377369;32;20073;-63
2022/07/23 10:50:35;;;;;;;3.47;2.92;;;;;;;;;;4379660;32;20246;-62
2022/07/23 10:53:13;;;;;;;7.32;4.03;;;;;;;;;;4365975;32;20074;-64
2022/07/23 10:55:43;;;;;;;9.88;3.85;;;;;;;;;;4377257;32;20073;-64
2022/07/23 10:58:09;;;;;;;6.78;3.80;;;;;;;;;;4389790;32;20161;-64
2022/07/23 11:00:37;;;;;;;7.37;3.83;;;;;;;;;;4390689;32;20100;-62
2022/07/23 11:03:29;;;;;;;18.70;8.02;;;;;;;;;;4377868;32;20081;-64
2022/07/23 11:05:56;;;;;;;14.87;5.53;;;;;;;;;;4390262;32;20093;-64
2022/07/23 11:08:23;;;;;;;15.43;5.80;;;;;;;;;;4391666;32;20591;-64
2022/07/23 11:11:02;;;;;;;17.35;6.07;;;;;;;;;;4391056;32;20085;-63
2022/07/23 11:13:48;;;;;;;11.43;4.87;;;;;;;;;;4389779;32;20078;-63
2022/07/23 11:16:16;;;;;;;11.25;4.47;;;;;;;;;;4364917;32;20074;-64
2022/07/23 11:18:43;;;;;;;7.75;4.78;;;;;;;;;;4377079;32;20086;-64
2022/07/23 11:21:26;;;;;;;9.10;4.47;;;;;;;;;;4377298;32;20159;-65
2022/07/23 11:24:10;;;;;;;8.15;4.62;;;;;;;;;;4377453;32;20055;-64
2022/07/23 11:26:42;;;;;;;11.05;4.37;;;;;;;;;;4376032;32;20081;-64
2022/07/23 11:29:37;;;;;;;8.57;4.20;;;;;;;;;;4377406;32;20082;-62
2022/07/23 11:32:24;;;;;;;10.57;4.90;;;;;;;;;;4376469;32;20069;-64
2022/07/23 11:34:53;;;;;;;9.05;4.72;;;;;;;;;;4364490;32;20496;-64
2022/07/23 11:37:36;;;;;;;8.93;4.75;;;;;;;;;;4364883;32;20162;-64
2022/07/23 11:40:14;;;;;;;9.73;4.57;;;;;;;;;;4365042;32;20076;-64
2022/07/23 11:42:56;;;;;;;9.43;5.05;;;;;;;;;;4377304;32;20084;-64
2022/07/23 11:45:24;;;;;;;9.25;5.15;;;;;;;;;;4389685;32;20074;-65
2022/07/23 11:47:51;;;;;;;12.02;5.82;;;;;;;;;;4364533;32;20074;-64
2022/07/23 11:50:17;;;;;;;11.45;5.82;;;;;;;;;;4378261;32;20169;-64
2022/07/23 11:52:44;;;;;;;11.50;6.05;;;;;;;;;;4389482;32;20459;-64
2022/07/23 11:55:12;;;;;;;13.00;6.18;;;;;;;;;;4390836;32;20079;-64
2022/07/23 11:57:45;;;;;;;6.12;4.45;;;;;;;;;;4391181;32;20097;-64
2022/07/23 12:00:20;;;;;;;6.90;4.00;;;;;;;;;;4379388;32;20152;-64
2022/07/23 12:02:53;;;;;;;7.27;4.57;;;;;;;;;;4392049;32;20178;-64
2022/07/23 12:05:25;;;;;;;7.78;3.95;;;;;;;;;;4379941;32;20165;-63
2022/07/23 12:07:53;;;;;;;8.35;4.20;;;;;;;;;;4379507;32;20085;-64
2022/07/23 12:10:26;;;;;;;9.00;4.43;;;;;;;;;;4392228;32;20076;-64
2022/07/23 12:12:54;;;;;;;5.75;3.40;;;;;;;;;;4379692;32;20078;-64
2022/07/23 12:15:31;;;;;;;7.25;4.45;;;;;;;;;;4392184;32;20082;-64
2022/07/23 12:17:58;;;;;;;4.90;3.35;;;;;;;;;;4392109;32;20065;-64
2022/07/23 12:20:31;;;;;;;4.35;3.33;;;;;;;;;;4366733;32;20157;-64
2022/07/23 12:23:00;;;;;;;4.47;3.00;;;;;;;;;;4392081;32;20097;-64
2022/07/23 12:25:29;;;;;;;6.10;3.03;;;;;;;;;;4391998;32;20232;-64
2022/07/23 12:28:14;;;;;;;4.90;3.20;;;;;;;;;;4366768;32;20089;-65
2022/07/23 12:30:50;;;;;;;6.28;3.80;;;;;;;;;;4379127;32;20086;-64
2022/07/23 12:33:34;;;;;;;6.82;3.33;;;;;;;;;;4366693;32;20528;-65
2022/07/23 12:36:03;;;;;;;5.75;2.87;;;;;;;;;;4391713;32;20092;-64
2022/07/23 12:38:47;;;;;;;4.65;2.87;;;;;;;;;;4391738;32;20166;-64
2022/07/23 12:41:14;;;;;;;5.07;3.10;;;;;;;;;;4367198;32;20100;-64
2022/07/23 12:43:45;;;;;;;3.83;3.20;;;;;;;;;;4378790;32;20085;-65
2022/07/23 12:46:19;;;;;;;5.18;3.40;;;;;;;;;;4366650;32;20093;-64
2022/07/23 12:48:51;;;;;;;6.68;3.47;;;;;;;;;;4378833;32;20085;-63
2022/07/23 12:51:20;;;;;;;5.50;3.22;;;;;;;;;;4366285;32;20116;-63
2022/07/23 12:53:49;;;;;;;4.32;2.83;;;;;;;;;;4378669;32;20165;-64
2022/07/23 12:56:18;;;;;;;3.78;2.78;;;;;;;;;;4378882;32;20531;-66
2022/07/23 12:59:03;;;;;;;4.20;2.70;;;;;;;;;;4391279;32;20472;-65
2022/07/23 13:01:42;;;;;;;3.33;2.75;;;;;;;;;;4392795;32;20073;-64
2022/07/23 13:04:14;;;;;;;4.47;2.75;;;;;;;;;;4391495;32;20093;-64
2022/07/23 13:06:44;;;;;;;4.85;2.97;;;;;;;;;;4391036;32;20069;-64
2022/07/23 13:09:16;;;;;;;5.12;2.85;;;;;;;;;;4378483;32;20108;-65
2022/07/23 13:11:45;;;;;;;3.62;2.72;;;;;;;;;;4378758;32;20070;-63
2022/07/23 13:14:12;;;;;;;3.33;2.90;;;;;;;;;;4378623;32;20079;-64
2022/07/23 13:16:40;;;;;;;5.25;2.78;;;;;;;;;;4378675;32;20065;-64
2022/07/23 13:19:07;;;;;;;5.53;2.62;;;;;;;;;;4378254;32;20535;-64
2022/07/23 13:21:34;;;;;;;4.97;2.87;;;;;;;;;;4378194;32;20116;-64
2022/07/23 13:24:01;;;;;;;3.78;3.20;;;;;;;;;;4378933;32;20157;-64
2022/07/23 13:26:28;;;;;;;3.72;3.30;;;;;;;;;;4378657;32;20065;-63
2022/07/23 13:28:54;;;;;;;5.35;3.70;;;;;;;;;;4378222;32;20078;-64
2022/07/23 13:31:21;;;;;;;5.60;4.10;;;;;;;;;;4377987;32;20488;-62
2022/07/23 13:33:49;;;;;;;5.43;3.67;;;;;;;;;;4390567;32;20157;-63
2022/07/23 13:36:15;;;;;;;6.32;4.80;;;;;;;;;;4390789;32;20151;-63
2022/07/23 13:38:43;;;;;;;7.80;4.60;;;;;;;;;;4365696;32;20082;-63
2022/07/23 13:41:09;;;;;;;6.30;4.72;;;;;;;;;;4390829;32;20078;-63
2022/07/23 13:43:36;;;;;;;8.00;4.55;;;;;;;;;;4378218;32;20144;-64
2022/07/23 13:46:03;;;;;;;8.02;4.78;;;;;;;;;;4390542;32;20449;-64
2022/07/23 13:48:30;;;;;;;5.10;4.15;;;;;;;;;;4377979;32;20085;-63
2022/07/23 13:50:56;;;;;;;6.28;4.43;;;;;;;;;;4390482;32;20093;-64
2022/07/23 13:53:25;;;;;;;9.50;5.62;;;;;;;;;;4390603;32;20451;-62
2022/07/23 13:55:54;;;;;;;9.27;5.32;;;;;;;;;;4365772;32;20076;-63
2022/07/23 13:58:21;;;;;;;6.95;4.65;;;;;;;;;;4390414;32;20090;-65
2022/07/23 14:00:50;;;;;;;7.12;4.82;;;;;;;;;;4377831;32;20077;-64
2022/07/23 14:03:18;;;;;;;9.75;5.43;;;;;;;;;;4377744;32;20089;-64
2022/07/23 14:05:44;;;;;;;6.85;4.60;;;;;;;;;;4377820;32;20089;-65
2022/07/23 14:08:12;;;;;;;6.37;4.45;;;;;;;;;;4390149;32;20078;-64
2022/07/23 14:10:39;;;;;;;6.35;4.47;;;;;;;;;;4377699;32;20152;-64
2022/07/23 14:13:05;;;;;;;6.68;4.68;;;;;;;;;;4391361;32;20085;-62
2022/07/23 14:15:33;;;;;;;6.43;4.72;;;;;;;;;;4389802;32;20542;-65
2022/07/23 14:17:59;;;;;;;5.97;4.55;;;;;;;;;;4377730;32;20519;-62
2022/07/23 14:20:26;;;;;;;5.60;4.12;;;;;;;;;;4391164;32;20079;-64
2022/07/23 14:22:55;;;;;;;7.25;4.72;;;;;;;;;;4378243;32;20154;-64
2022/07/23 14:25:22;;;;;;;6.90;4.72;;;;;;;;;;4377842;32;20168;-63
2022/07/23 14:27:49;;;;;;;6.75;4.68;;;;;;;;;;4377502;32;20074;-64
2022/07/23 14:30:15;;;;;;;8.45;4.62;;;;;;;;;;4389754;32;20068;-64
2022/07/23 14:32:42;;;;;;;7.10;4.12;;;;;;;;;;4377037;32;20094;-64
2022/07/23 14:35:09;;;;;;;4.90;3.92;;;;;;;;;;4390451;32;20085;-64
2022/07/23 14:37:36;;;;;;;5.65;4.20;;;;;;;;;;4377485;32;20149;-64
2022/07/23 14:40:04;;;;;;;5.65;4.05;;;;;;;;;;4391073;32;20082;-63
2022/07/23 14:42:30;;;;;;;5.53;4.00;;;;;;;;;;4365131;32;20070;-63
2022/07/23 14:45:00;;;;;;;5.72;3.87;;;;;;;;;;4389904;32;20618;-64
2022/07/23 14:47:29;;;;;;;5.65;3.83;;;;;;;;;;4365584;32;20085;-64
2022/07/23 14:49:56;;;;;;;6.25;4.18;;;;;;;;;;4377258;32;20077;-64
2022/07/23 14:52:22;;;;;;;6.00;4.00;;;;;;;;;;4390499;32;20085;-65
2022/07/23 14:54:49;;;;;;;5.05;3.87;;;;;;;;;;4389994;32;20070;-64
2022/07/23 14:57:16;;;;;;;6.50;3.78;;;;;;;;;;4391052;32;20086;-64
2022/07/23 14:59:43;;;;;;;6.57;4.75;;;;;;;;;;4389858;32;20082;-64